Hovedside
METAR-TAF:

METAR-TAF

Lufthavner :

Gällivare lufthavn

Gällivare, Sverige

breddegrad: 67-09N, lengdegrad: 020-39E, høyde over havet: 359 m

Gjeldene værobservasjon

Denne rapporten ble laget for 25 minutter siden, klokken 21:50 UTC
Vind 10 kt fra Vest
Temperatur -4°C
Luftfuktighet 68%
Trykk 996 hPa
Sikt 10 km eller mer
ingen skyer under 1500 m og ingen bygeskyer

METAR: ESNG 242150Z 28010KT CAVOK M04/M09 Q0996

Tid: 23:15 (22:15 UTC)

Varsel

Denne rapporten ble laget for 1 time og 45 minutter siden, klokken 20:30 UTC
Varsel gyldig fra 24. klokken 21 UTC til 24. klokken 23 UTC
Vind 9 kt fra Vest-nordvest
Sikt 10 km eller mer
ingen skyer under 1500 m og ingen bygeskyer

TAF: ESNG 242030Z 2421/2423 29009KT CAVOK

Værobservasjoner og værvarsel for over 4000 flyplasser (METAR- og TAF-rapporter).

Tilgjengelige stasjoner er representert av de røde og gule prikkene på kartet.

Hold musepekeren over prikken for å se navnet på stasjonen.

Klikk så for å se værobservasjoner og -varsler.

For å forandre kartet kan du klikke på den grønne knappen med svart kryss for å zoome inn, på den grønne knappen med strek for å zoome ut, eller på de grønne pilene for å se tilstøtende kart.


METAR-TAF: